Time;durP1;ratioP1;P1;durP2;ratioP2;P2;SDS_P1;SDS_P2;PMS_P1;PMS_P2;Temp;Humidity;BMP_temperature;BMP_pressure;BME280_temperature;BME280_humidity;BME280_pressure;Samples;Min_cycle;Max_cycle;Signal;HPM_P1;HPM_P2
2021/03/14 00:01:05;;;;;;;4.43;2.33;;;;;;;-0.73;71.47;95091.95;1740170;81;21256;-65
2021/03/14 00:03:36;;;;;;;11.10;5.00;;;;;;;-0.73;71.71;95085.08;1740161;82;21099;-65
2021/03/14 00:06:06;;;;;;;19.32;9.20;;;;;;;-0.68;71.99;95095.09;1740309;82;21244;-65
2021/03/14 00:08:34;;;;;;;29.37;11.50;;;;;;;-0.69;71.89;95089.44;1740502;82;21174;-65
2021/03/14 00:11:06;;;;;;;19.13;7.40;;;;;;;-0.79;72.06;95083.66;1740018;82;21134;-65
2021/03/14 00:13:37;;;;;;;3.17;1.93;;;;;;;-0.81;72.61;95086.64;1740318;82;21663;-65
2021/03/14 00:16:08;;;;;;;5.90;2.30;;;;;;;-0.77;72.75;95089.74;1740363;82;21287;-65
2021/03/14 00:18:39;;;;;;;4.77;2.73;;;;;;;-0.75;72.57;95080.72;1740685;82;21142;-65
2021/03/14 00:21:10;;;;;;;5.70;2.30;;;;;;;-0.81;72.25;95080.16;1740102;82;21126;-65
2021/03/14 00:23:38;;;;;;;2.43;0.90;;;;;;;-0.85;72.15;95084.87;1740239;82;21691;-65
2021/03/14 00:26:07;;;;;;;2.93;1.23;;;;;;;-0.83;72.13;95089.66;1740311;82;21142;-65
2021/03/14 00:28:35;;;;;;;3.57;1.33;;;;;;;-0.81;72.02;95089.23;1740215;82;21572;-65
2021/03/14 00:31:03;;;;;;;1.17;0.63;;;;;;;-0.87;72.60;95080.08;1740177;82;21632;-65
2021/03/14 00:33:31;;;;;;;1.93;0.90;;;;;;;-0.88;73.15;95082.23;1740350;82;21178;-63
2021/03/14 00:35:59;;;;;;;2.07;1.00;;;;;;;-0.92;72.29;95077.41;1740369;82;21272;-63
2021/03/14 00:38:27;;;;;;;3.73;1.60;;;;;;;-0.92;73.70;95076.54;1740161;82;21260;-63
2021/03/14 00:40:55;;;;;;;14.33;5.57;;;;;;;-0.84;73.86;95067.17;1740328;82;21566;-63
2021/03/14 00:43:22;;;;;;;16.73;4.17;;;;;;;-0.86;73.21;95063.67;1740087;82;21783;-63
2021/03/14 00:45:50;;;;;;;19.00;8.10;;;;;;;-0.85;72.88;95060.69;1740170;82;21535;-63
2021/03/14 00:48:20;;;;;;;24.43;10.67;;;;;;;-0.80;73.22;95060.34;1738766;82;21150;-63
2021/03/14 00:50:47;;;;;;;14.40;6.37;;;;;;;-0.69;72.80;95053.59;1740216;82;21592;-63
2021/03/14 00:53:17;;;;;;;9.70;4.63;;;;;;;-0.66;72.70;95044.17;1739747;82;21110;-63
2021/03/14 00:55:47;;;;;;;5.03;2.23;;;;;;;-0.65;72.61;95045.04;1740085;82;21726;-63
2021/03/14 00:58:15;;;;;;;5.67;2.27;;;;;;;-0.54;72.17;95040.88;1740167;82;21702;-63
2021/03/14 01:00:44;;;;;;;23.80;10.73;;;;;;;-0.50;72.35;95041.38;1718215;82;21126;-63
2021/03/14 01:03:13;;;;;;;11.67;5.83;;;;;;;-0.51;71.79;95040.91;1740037;82;21724;-63
2021/03/14 01:05:43;;;;;;;2.37;1.27;;;;;;;-0.55;72.12;95033.97;1740382;82;21698;-63
2021/03/14 01:08:12;;;;;;;1.57;1.10;;;;;;;-0.56;71.60;95027.02;1740056;82;21138;-63
2021/03/14 01:10:40;;;;;;;3.03;2.00;;;;;;;-0.58;72.28;95023.95;1740189;82;21166;-63
2021/03/14 01:13:10;;;;;;;2.73;1.90;;;;;;;-0.51;72.29;95020.61;1740062;82;21701;-63
2021/03/14 01:15:37;;;;;;;12.03;5.07;;;;;;;-0.57;72.78;95021.41;1740212;82;21272;-63
2021/03/14 01:18:06;;;;;;;1.83;1.20;;;;;;;-0.56;72.51;95020.97;1740323;82;21263;-63
2021/03/14 01:20:34;;;;;;;1.67;1.20;;;;;;;-0.58;72.13;95019.67;1740310;82;21269;-63
2021/03/14 01:23:02;;;;;;;1.70;1.20;;;;;;;-0.57;72.33;95012.77;1740250;82;21300;-63
2021/03/14 01:25:30;;;;;;;1.40;0.97;;;;;;;-0.51;72.13;95018.89;1740353;82;21138;-63
2021/03/14 01:27:57;;;;;;;2.10;1.50;;;;;;;-0.49;71.92;95013.30;1739952;82;21750;-63
2021/03/14 01:30:26;;;;;;;54.57;27.90;;;;;;;-0.47;72.32;95007.73;1740384;82;21141;-63
2021/03/14 01:32:54;;;;;;;3.47;1.73;;;;;;;-0.46;72.12;95015.94;1740478;81;21576;-63
2021/03/14 01:35:22;;;;;;;12.23;5.83;;;;;;;-0.35;71.77;95017.80;1740282;82;21165;-63
2021/03/14 01:37:50;;;;;;;11.30;5.47;;;;;;;-0.28;72.10;95011.45;1740021;82;21125;-63
2021/03/14 01:40:20;;;;;;;17.57;9.17;;;;;;;-0.28;71.54;94997.60;1740133;81;21276;-63
2021/03/14 01:42:48;;;;;;;19.87;9.90;;;;;;;-0.26;71.24;94988.99;1739997;82;21276;-63
2021/03/14 01:45:17;;;;;;;19.97;10.93;;;;;;;-0.19;71.57;94995.14;1740259;82;21284;-63
2021/03/14 01:47:49;;;;;;;9.77;5.40;;;;;;;-0.18;71.84;94983.91;1740336;82;21166;-63
2021/03/14 01:50:21;;;;;;;5.30;2.70;;;;;;;-0.16;71.45;94977.45;1740283;82;21099;-63
2021/03/14 01:52:50;;;;;;;15.63;7.17;;;;;;;-0.06;71.88;94981.47;1740110;82;21280;-63
2021/03/14 01:55:20;;;;;;;11.50;5.83;;;;;;;-0.06;71.88;94981.47;1740344;82;21276;-63
2021/03/14 01:57:49;;;;;;;16.87;7.87;;;;;;;-0.07;71.06;94976.28;1740207;82;21241;-63
2021/03/14 02:00:23;;;;;;;12.63;6.57;;;;;;;-0.14;71.81;94966.25;1740208;82;21289;-63
2021/03/14 02:02:51;;;;;;;13.63;7.47;;;;;;;-0.20;71.87;94967.88;1740205;82;21759;-63
2021/03/14 02:05:21;;;;;;;17.03;8.30;;;;;;;-0.27;71.59;94953.56;1739973;82;21585;-63
2021/03/14 02:07:52;;;;;;;8.27;4.83;;;;;;;-0.19;71.34;94956.68;1740114;82;21581;-63
2021/03/14 02:10:28;;;;;;;13.93;7.20;;;;;;;-0.15;71.22;94948.96;1740373;82;21283;-63
2021/03/14 02:13:20;;;;;;;5.30;3.23;;;;;;;-0.19;73.06;94948.47;1739915;82;21272;-65
2021/03/14 02:16:02;;;;;;;32.23;17.23;;;;;;;-0.11;73.86;94953.75;1729954;82;21169;-65
2021/03/14 02:18:33;;;;;;;38.77;19.23;;;;;;;0.01;73.03;94955.63;1740361;82;21256;-65
2021/03/14 02:21:00;;;;;;;24.03;12.77;;;;;;;0.03;72.73;94962.57;1740477;82;21110;-65
2021/03/14 02:23:59;;;;;;;24.23;13.33;;;;;;;0.07;72.14;94964.33;1740157;82;21893;-65
2021/03/14 02:26:35;;;;;;;27.57;13.70;;;;;;;0.11;71.71;94963.95;1740243;81;21275;-65
2021/03/14 02:29:05;;;;;;;23.93;12.73;;;;;;;0.16;72.12;94952.77;1718552;82;21537;-65
2021/03/14 02:31:32;;;;;;;22.20;11.37;;;;;;;0.24;71.71;94950.25;1740052;82;21146;-65
2021/03/14 02:34:09;;;;;;;21.53;11.23;;;;;;;0.35;71.65;94942.57;1739988;81;21312;-65
2021/03/14 02:36:39;;;;;;;13.70;7.20;;;;;;;0.39;72.17;94941.76;1740271;82;21667;-65
2021/03/14 02:39:11;;;;;;;10.30;5.70;;;;;;;0.39;71.48;94933.97;1740134;82;21572;-65
2021/03/14 02:41:41;;;;;;;6.85;4.30;;;;;;;0.43;71.95;94926.23;1740096;82;21304;-65
2021/03/14 02:44:12;;;;;;;6.67;3.40;;;;;;;0.51;72.14;94916.36;1740075;82;21268;-65
2021/03/14 02:46:42;;;;;;;10.17;4.03;;;;;;;0.53;72.79;94928.49;1740375;82;21675;-65
2021/03/14 02:49:12;;;;;;;5.97;3.83;;;;;;;0.64;72.51;94933.77;1740160;82;21299;-65
2021/03/14 02:51:40;;;;;;;10.17;4.23;;;;;;;0.73;72.15;94923.47;1740039;82;21166;-65
2021/03/14 02:54:10;;;;;;;9.23;4.63;;;;;;;0.81;71.97;94920.50;1739899;82;21287;-65
2021/03/14 02:56:38;;;;;;;8.60;4.77;;;;;;;0.86;72.19;94921.41;1740072;82;21138;-65
2021/03/14 02:59:07;;;;;;;9.50;5.70;;;;;;;0.88;72.42;94914.05;1740004;81;21727;-65
2021/03/14 03:01:36;;;;;;;11.23;5.40;;;;;;;0.87;73.35;94915.78;1740151;81;21703;-65
2021/03/14 03:04:05;;;;;;;16.27;8.10;;;;;;;0.86;73.23;94919.25;1740122;82;21278;-65
2021/03/14 03:06:33;;;;;;;24.80;13.33;;;;;;;0.69;74.70;94920.40;1740151;81;21717;-65
2021/03/14 03:09:01;;;;;;;22.67;11.93;;;;;;;0.67;74.50;94923.41;1739971;82;21154;-65
2021/03/14 03:11:30;;;;;;;28.13;14.70;;;;;;;0.68;74.30;94918.67;1740111;82;21288;-65
2021/03/14 03:13:58;;;;;;;33.17;17.70;;;;;;;0.72;74.23;94929.50;1739978;82;21295;-65
2021/03/14 03:16:27;;;;;;;38.67;20.13;;;;;;;0.69;74.59;94921.70;1740224;82;21291;-65
2021/03/14 03:18:55;;;;;;;17.80;9.93;;;;;;;0.69;73.90;94918.23;1740025;82;21295;-65
2021/03/14 03:21:26;;;;;;;5.97;2.37;;;;;;;0.78;73.70;94919.59;1740314;82;21292;-65
2021/03/14 03:23:54;;;;;;;5.00;3.40;;;;;;;0.86;73.99;94920.55;1739915;82;21149;-65
2021/03/14 03:26:23;;;;;;;4.27;2.83;;;;;;;0.90;74.88;94916.23;1740403;82;21671;-65
2021/03/14 03:28:51;;;;;;;19.17;10.57;;;;;;;0.92;75.18;94911.92;1739984;82;21737;-65
2021/03/14 03:31:19;;;;;;;91.50;42.80;;;;;;;0.85;76.89;94907.97;1740401;82;21107;-65
2021/03/14 03:33:47;;;;;;;102.43;43.73;;;;;;;0.79;75.82;94902.73;1740395;81;21583;-65
2021/03/14 03:36:15;;;;;;;37.60;17.67;;;;;;;0.66;76.02;94903.50;1740763;82;21572;-65
2021/03/14 03:38:43;;;;;;;6.37;3.77;;;;;;;0.69;75.20;94900.06;1740362;82;21303;-65
2021/03/14 03:41:14;;;;;;;5.87;2.50;;;;;;;0.67;76.15;94903.07;1740357;82;21210;-64
2021/03/14 03:43:43;;;;;;;3.33;2.10;;;;;;;0.68;77.72;94906.98;1740091;82;21134;-64
2021/03/14 03:46:13;;;;;;;33.53;15.83;;;;;;;0.68;77.38;94910.88;1740270;82;21722;-64
2021/03/14 03:48:50;;;;;;;7.53;4.37;;;;;;;0.67;78.87;94905.67;1740143;82;21280;-64
2021/03/14 03:51:22;;;;;;;17.80;8.23;;;;;;;0.72;78.55;94903.55;1719858;82;21125;-64
2021/03/14 03:53:52;;;;;;;30.17;13.40;;;;;;;0.76;79.40;94911.81;1740234;82;21753;-64
2021/03/14 03:56:21;;;;;;;44.43;18.00;;;;;;;0.80;79.44;94908.80;1740168;82;21284;-64
2021/03/14 03:58:50;;;;;;;2.67;1.70;;;;;;;0.89;78.72;94901.52;1740069;82;21727;-64
2021/03/14 04:01:19;;;;;;;24.03;11.43;;;;;;;0.92;78.84;94899.80;1740162;82;21308;-64
2021/03/14 04:03:50;;;;;;;43.27;20.00;;;;;;;0.97;79.80;94895.94;1740151;82;21304;-64
2021/03/14 04:06:18;;;;;;;48.57;21.67;;;;;;;1.01;78.86;94895.98;1719471;82;21154;-64
2021/03/14 04:08:48;;;;;;;30.17;12.53;;;;;;;1.05;78.19;94895.13;1740205;82;21719;-64
2021/03/14 04:11:19;;;;;;;6.57;3.00;;;;;;;1.00;78.02;94898.55;1740266;82;21275;-65
2021/03/14 04:13:50;;;;;;;27.57;12.37;;;;;;;1.00;77.86;94890.32;1740461;82;21134;-64
2021/03/14 04:16:19;;;;;;;11.87;6.47;;;;;;;0.97;79.45;94888.15;1740307;81;21711;-64
2021/03/14 04:18:49;;;;;;;3.40;2.47;;;;;;;1.02;79.18;94885.16;1720001;82;21142;-64
2021/03/14 04:21:19;;;;;;;3.57;2.23;;;;;;;0.97;79.97;94889.45;1740326;82;21296;-64
2021/03/14 04:23:51;;;;;;;4.70;2.60;;;;;;;0.93;79.38;94879.88;1740167;81;21245;-64
2021/03/14 04:26:22;;;;;;;33.57;16.27;;;;;;;0.97;79.27;94880.36;1739969;82;21094;-64
2021/03/14 04:28:53;;;;;;;14.43;7.60;;;;;;;0.98;79.04;94880.78;1740207;82;21288;-64
2021/03/14 04:31:22;;;;;;;21.37;10.60;;;;;;;0.99;79.94;94879.95;1740361;82;21107;-64
2021/03/14 04:33:52;;;;;;;27.20;14.27;;;;;;;0.88;79.62;94872.05;1740172;82;21295;-64
2021/03/14 04:36:20;;;;;;;22.53;10.37;;;;;;;0.82;79.89;94870.30;1740167;82;21280;-64
2021/03/14 04:38:52;;;;;;;15.67;7.53;;;;;;;0.79;81.42;94862.48;1740164;82;21268;-64
2021/03/14 04:41:21;;;;;;;13.13;6.50;;;;;;;0.80;80.40;94865.95;1740060;81;21249;-64
2021/03/14 04:43:48;;;;;;;16.17;9.07;;;;;;;0.74;80.34;94868.52;1740034;82;21276;-64
2021/03/14 04:46:17;;;;;;;25.73;14.47;;;;;;;0.67;80.62;94863.69;1740301;82;21154;-65
2021/03/14 04:48:45;;;;;;;11.00;5.77;;;;;;;0.70;81.05;94856.36;1740048;82;21718;-64
2021/03/14 04:51:15;;;;;;;16.47;9.30;;;;;;;0.74;80.85;94848.60;1737468;82;21707;-64
2021/03/14 04:53:44;;;;;;;29.23;16.07;;;;;;;0.70;80.88;94845.97;1740235;82;21158;-64
2021/03/14 04:56:17;;;;;;;29.87;15.33;;;;;;;0.69;80.99;94852.89;1740210;82;21276;-64
2021/03/14 04:58:48;;;;;;;11.48;7.12;;;;;;;0.75;80.67;94851.63;1740170;82;21252;-64
2021/03/14 05:01:18;;;;;;;11.23;5.63;;;;;;;0.76;80.59;94839.54;1740055;82;21276;-64
2021/03/14 05:03:52;;;;;;;9.23;4.33;;;;;;;0.68;80.80;94833.00;1740337;82;21710;-64
2021/03/14 05:06:21;;;;;;;6.37;3.72;;;;;;;0.67;80.77;94835.56;1740555;82;21260;-64
2021/03/14 05:08:51;;;;;;;9.30;5.33;;;;;;;0.64;80.47;94836.42;1739924;82;21157;-64
2021/03/14 05:11:21;;;;;;;32.07;14.90;;;;;;;0.63;81.79;94834.26;1740111;82;21272;-64
2021/03/14 05:13:50;;;;;;;13.93;7.47;;;;;;;0.62;81.82;94826.01;1739999;82;21170;-64
2021/03/14 05:16:19;;;;;;;21.10;11.00;;;;;;;0.66;81.05;94809.18;1740042;82;21134;-64
2021/03/14 05:18:47;;;;;;;9.40;5.30;;;;;;;0.55;81.64;94794.80;1740133;82;21272;-64
2021/03/14 05:21:15;;;;;;;15.00;7.80;;;;;;;0.50;81.65;94794.77;1740159;82;21279;-64
2021/03/14 05:23:44;;;;;;;16.57;7.93;;;;;;;0.55;83.22;94794.38;1719415;82;21142;-64
2021/03/14 05:26:14;;;;;;;11.67;6.97;;;;;;;0.65;82.10;94805.69;1740270;81;21158;-64
2021/03/14 05:28:44;;;;;;;7.23;4.43;;;;;;;0.75;81.31;94810.52;1740047;82;21542;-64
2021/03/14 05:31:28;;;;;;;11.20;6.57;;;;;;;0.78;81.29;94811.83;1719614;82;21138;-64
2021/03/14 05:33:59;;;;;;;9.73;5.63;;;;;;;0.83;81.76;94805.83;1740649;81;21366;-64
2021/03/14 05:36:27;;;;;;;32.93;17.30;;;;;;;0.93;81.30;94803.27;1754135;81;21552;-64
2021/03/14 05:38:56;;;;;;;19.23;11.87;;;;;;;1.03;81.25;94801.16;1754288;81;21153;-64
2021/03/14 05:41:25;;;;;;;25.13;14.10;;;;;;;1.07;81.39;94802.48;1754125;82;21603;-64
2021/03/14 05:43:54;;;;;;;13.47;7.73;;;;;;;1.16;81.13;94800.38;1726715;82;21149;-64
2021/03/14 05:46:22;;;;;;;16.47;8.53;;;;;;;1.18;80.89;94810.75;1754121;82;21140;-64
2021/03/14 05:48:53;;;;;;;12.60;6.97;;;;;;;1.17;80.79;94812.48;1754156;82;21122;-64
2021/03/14 05:51:27;;;;;;;26.87;14.53;;;;;;;1.17;81.41;94801.23;1754265;82;21611;-64
2021/03/14 05:53:58;;;;;;;20.57;8.53;;;;;;;1.18;80.95;94788.23;1754282;82;21129;-64
2021/03/14 05:56:28;;;;;;;81.40;34.80;;;;;;;1.23;81.42;94785.66;1754235;82;21536;-65
2021/03/14 05:58:56;;;;;;;91.97;39.77;;;;;;;1.30;82.22;94786.13;1754188;82;21144;-64
2021/03/14 06:01:29;;;;;;;130.10;53.73;;;;;;;1.42;82.84;94788.77;1754149;81;21570;-64
2021/03/14 06:03:58;;;;;;;218.97;93.52;;;;;;;1.65;82.43;94793.17;1754246;81;21576;-64
2021/03/14 06:06:27;;;;;;;110.40;49.67;;;;;;;1.89;82.24;94798.44;1754202;81;21568;-64
2021/03/14 06:08:56;;;;;;;124.07;51.83;;;;;;;2.12;82.39;94809.32;1754466;82;21156;-64
2021/03/14 06:11:24;;;;;;;48.63;25.73;;;;;;;2.35;82.39;94804.13;1754268;82;21165;-64
2021/03/14 06:13:52;;;;;;;41.43;23.10;;;;;;;2.59;81.94;94816.26;1754157;82;21592;-65
2021/03/14 06:16:20;;;;;;;48.63;24.93;;;;;;;2.80;81.10;94820.60;1754218;82;21122;-64
2021/03/14 06:18:52;;;;;;;34.90;19.50;;;;;;;2.97;80.55;94806.22;1754109;82;21137;-64
2021/03/14 06:21:30;;;;;;;34.00;17.70;;;;;;;3.07;79.99;94816.20;1754177;81;21134;-64
2021/03/14 06:24:08;;;;;;;36.20;17.80;;;;;;;3.18;79.64;94827.48;1754172;81;21120;-64
2021/03/14 06:26:44;;;;;;;29.30;15.00;;;;;;;3.28;79.02;94827.02;1754041;82;21149;-64
2021/03/14 06:29:23;;;;;;;32.00;15.80;;;;;;;3.39;78.84;94827.41;1754000;82;21616;-64
2021/03/14 06:32:00;;;;;;;19.80;10.60;;;;;;;3.43;78.75;94834.35;1753980;82;21180;-64
2021/03/14 06:34:36;;;;;;;29.30;15.17;;;;;;;3.41;79.07;94837.40;1751339;81;21177;-64
2021/03/14 06:37:11;;;;;;;22.23;12.70;;;;;;;3.44;78.64;94832.16;1740246;82;21288;-64
2021/03/14 06:39:49;;;;;;;28.00;12.90;;;;;;;3.55;78.06;94822.12;1740378;82;21272;-64
2021/03/14 06:42:32;;;;;;;11.93;7.27;;;;;;;3.66;78.17;94813.39;1740266;82;21728;-64
2021/03/14 06:45:13;;;;;;;18.37;10.20;;;;;;;3.75;77.84;94815.08;1740276;82;21276;-64
2021/03/14 06:47:49;;;;;;;19.20;10.80;;;;;;;3.87;77.73;94825.45;1740030;82;21129;-64
2021/03/14 06:50:31;;;;;;;14.13;8.33;;;;;;;4.09;77.30;94827.52;1740087;82;21290;-64
2021/03/14 06:53:20;;;;;;;10.17;6.83;;;;;;;4.31;77.16;94818.25;1738110;82;21130;-64
2021/03/14 06:55:48;;;;;;;5.40;3.08;;;;;;;4.57;77.71;94825.02;1739851;82;21735;-64
2021/03/14 06:58:24;;;;;;;6.77;3.90;;;;;;;4.80;77.00;94822.22;1740331;82;21545;-64
2021/03/14 07:01:16;;;;;;;8.13;3.23;;;;;;;5.10;76.13;94812.77;1740167;82;21281;-64
2021/03/14 07:03:54;;;;;;;5.47;2.17;;;;;;;5.38;75.07;94810.73;1740200;82;21272;-64
2021/03/14 07:06:28;;;;;;;6.53;2.83;;;;;;;5.82;72.64;94817.61;1740585;82;21129;-65
2021/03/14 07:09:00;;;;;;;5.67;2.27;;;;;;;6.17;72.19;94833.34;1740497;82;21150;-64
2021/03/14 07:11:42;;;;;;;1.70;1.40;;;;;;;6.38;69.69;94833.05;1738412;82;21134;-65
2021/03/14 07:14:14;;;;;;;7.70;3.73;;;;;;;6.44;70.68;94847.36;1740176;82;21120;-65
2021/03/14 07:16:56;;;;;;;6.53;4.27;;;;;;;6.46;72.15;94838.17;1740138;81;21276;-64
2021/03/14 07:19:30;;;;;;;2.42;1.30;;;;;;;6.44;72.14;94828.16;1740316;82;21287;-65
2021/03/14 07:22:08;;;;;;;4.93;3.40;;;;;;;6.39;72.12;94826.05;1740245;82;21691;-65
2021/03/14 07:24:41;;;;;;;8.30;3.87;;;;;;;6.39;72.70;94837.39;1740586;82;21134;-65
2021/03/14 07:27:25;;;;;;;4.30;2.83;;;;;;;6.36;73.22;94825.65;1740491;82;21656;-65
2021/03/14 07:29:58;;;;;;;3.97;2.90;;;;;;;6.32;72.97;94820.02;1740364;81;21174;-64
2021/03/14 07:32:28;;;;;;;4.60;2.43;;;;;;;6.32;72.75;94822.64;1740215;82;21122;-65
2021/03/14 07:34:56;;;;;;;4.00;2.50;;;;;;;6.34;73.24;94847.07;1744038;81;21334;-65
2021/03/14 07:37:24;;;;;;;2.73;1.60;;;;;;;6.45;72.77;94838.63;1754494;82;21133;-65
2021/03/14 07:39:52;;;;;;;3.47;2.00;;;;;;;6.53;71.77;94837.62;1754479;81;21157;-65
2021/03/14 07:42:23;;;;;;;1.77;1.40;;;;;;;6.61;71.72;94838.39;1754347;82;21133;-65
2021/03/14 07:44:51;;;;;;;4.13;2.40;;;;;;;6.62;70.34;94828.31;1754384;81;21152;-64
2021/03/14 07:47:21;;;;;;;3.30;1.60;;;;;;;6.64;71.40;94833.95;1754463;82;21145;-64
2021/03/14 07:49:52;;;;;;;3.47;2.17;;;;;;;6.61;71.71;94824.84;1754168;81;21141;-65
2021/03/14 07:52:29;;;;;;;3.77;2.13;;;;;;;6.58;71.75;94821.41;1754463;82;21306;-65
2021/03/14 07:55:04;;;;;;;3.70;2.27;;;;;;;6.57;71.94;94810.03;1754393;81;21129;-64
2021/03/14 07:57:32;;;;;;;10.43;5.77;;;;;;;6.51;71.94;94793.11;1754208;82;21575;-65
2021/03/14 08:00:39;;;;;;;9.03;5.07;;;;;;;6.49;71.69;94792.27;1754478;82;21299;-65
2021/03/14 08:03:10;;;;;;;16.97;9.37;;;;;;;6.57;71.77;94796.07;1754202;82;21169;-65
2021/03/14 08:05:45;;;;;;;14.90;8.23;;;;;;;6.55;71.98;94802.67;1754188;81;21130;-64
2021/03/14 08:08:27;;;;;;;15.30;8.07;;;;;;;6.48;72.96;94811.51;1754160;82;21122;-64
2021/03/14 08:10:56;;;;;;;15.50;9.30;;;;;;;6.53;72.65;94811.41;1754322;82;21109;-64
2021/03/14 08:13:35;;;;;;;9.07;5.57;;;;;;;6.59;72.42;94808.27;1754162;81;21153;-65
2021/03/14 08:16:09;;;;;;;5.83;4.10;;;;;;;6.65;72.04;94816.05;1754256;81;21126;-64
2021/03/14 08:18:46;;;;;;;21.87;9.80;;;;;;;6.68;72.39;94813.82;1754394;82;21161;-65
2021/03/14 08:21:28;;;;;;;23.10;9.67;;;;;;;6.65;73.24;94813.42;1754200;82;21588;-65
2021/03/14 08:23:58;;;;;;;29.48;12.68;;;;;;;6.57;73.21;94803.48;1751355;82;21148;-64
2021/03/14 08:26:33;;;;;;;9.83;4.93;;;;;;;6.56;72.61;94804.39;1727380;82;21517;-65
2021/03/14 08:29:12;;;;;;;6.90;3.90;;;;;;;6.62;72.81;94817.37;1754161;81;21177;-64
2021/03/14 08:31:45;;;;;;;19.77;9.77;;;;;;;6.69;72.51;94805.91;1754121;81;21197;-62
2021/03/14 08:34:22;;;;;;;8.13;4.83;;;;;;;6.75;71.65;94794.91;1754053;81;21121;-62
2021/03/14 08:36:51;;;;;;;7.03;4.30;;;;;;;6.82;71.34;94788.22;1746731;82;21114;-62
2021/03/14 08:39:25;;;;;;;14.23;7.63;;;;;;;6.82;72.04;94778.19;1749714;82;21142;-62
2021/03/14 08:42:01;;;;;;;9.07;4.40;;;;;;;6.87;70.91;94794.70;1750685;82;21134;-62
2021/03/14 08:44:35;;;;;;;187.43;56.07;;;;;;;6.99;70.41;94791.02;1750421;82;21247;-62
2021/03/14 08:47:17;;;;;;;128.90;54.37;;;;;;;7.01;69.25;94800.58;1750060;82;21260;-62
2021/03/14 08:49:50;;;;;;;54.37;28.37;;;;;;;7.10;69.12;94792.98;1721195;82;21133;-61
2021/03/14 08:52:21;;;;;;;344.18;153.87;;;;;;;7.28;69.09;94796.60;1721110;82;21129;-62
2021/03/14 08:54:58;;;;;;;139.07;66.27;;;;;;;7.36;68.01;94792.06;1749117;82;21140;-62
2021/03/14 08:57:25;;;;;;;30.57;17.87;;;;;;;7.54;67.94;94794.78;1750719;82;21512;-62
2021/03/14 08:59:57;;;;;;;11.53;6.93;;;;;;;7.71;68.30;94791.83;1750210;82;21125;-62
2021/03/14 09:02:29;;;;;;;7.60;4.53;;;;;;;7.75;67.80;94792.16;1750799;81;21125;-62
2021/03/14 09:05:17;;;;;;;5.47;3.27;;;;;;;7.83;66.70;94801.64;1750993;81;21516;-62
2021/03/14 09:07:59;;;;;;;6.33;3.97;;;;;;;7.89;66.79;94806.79;1749823;82;21156;-62
2021/03/14 09:10:34;;;;;;;5.90;3.47;;;;;;;7.85;66.31;94812.53;1750711;82;21118;-62
2021/03/14 09:13:06;;;;;;;57.13;31.97;;;;;;;8.05;66.80;94822.62;1745303;82;21126;-62
2021/03/14 09:15:36;;;;;;;5.80;4.13;;;;;;;8.15;66.30;94812.80;1747318;82;21130;-62
2021/03/14 09:18:24;;;;;;;5.30;3.27;;;;;;;8.22;67.17;94802.56;1742598;82;21106;-62
2021/03/14 09:21:01;;;;;;;4.93;3.17;;;;;;;8.31;66.91;94803.66;1750367;81;21137;-62
2021/03/14 09:23:42;;;;;;;4.77;3.40;;;;;;;8.42;66.20;94803.47;1749730;82;21117;-62
2021/03/14 09:26:11;;;;;;;24.00;13.13;;;;;;;8.47;66.37;94808.59;1750432;81;21300;-62
2021/03/14 09:28:44;;;;;;;5.47;2.80;;;;;;;8.59;64.88;94806.58;1721202;82;21137;-62
2021/03/14 09:31:13;;;;;;;2.90;1.95;;;;;;;8.61;66.61;94810.00;1750718;82;21129;-62
2021/03/14 09:33:43;;;;;;;1.77;1.10;;;;;;;8.78;64.93;94816.64;1749518;82;21298;-62
2021/03/14 09:36:14;;;;;;;13.93;10.60;;;;;;;8.91;64.90;94812.80;1741444;81;21331;-62
2021/03/14 09:38:59;;;;;;;2.47;1.40;;;;;;;8.99;64.55;94813.93;1740239;82;21129;-62
2021/03/14 09:41:44;;;;;;;1.80;1.30;;;;;;;8.97;64.57;94809.16;1739961;82;21580;-62
2021/03/14 09:44:23;;;;;;;1.30;1.20;;;;;;;9.07;64.14;94806.27;1739998;82;21126;-62
2021/03/14 09:47:01;;;;;;;1.27;0.90;;;;;;;9.19;64.89;94793.69;1740301;82;21710;-62
2021/03/14 09:49:30;;;;;;;1.03;0.90;;;;;;;9.25;63.43;94798.81;1740147;82;21169;-62
2021/03/14 09:52:00;;;;;;;1.87;1.50;;;;;;;9.37;65.08;94794.97;1740343;82;21291;-62
2021/03/14 09:54:30;;;;;;;1.20;1.00;;;;;;;9.46;63.68;94792.09;1740093;81;21698;-62
2021/03/14 09:56:58;;;;;;;0.93;0.83;;;;;;;9.52;64.24;94791.49;1739996;82;21141;-62
2021/03/14 09:59:37;;;;;;;1.37;1.03;;;;;;;9.84;63.27;94800.70;1739219;82;21140;-62
2021/03/14 10:02:22;;;;;;;2.40;1.60;;;;;;;10.02;64.17;94804.13;1739978;82;21347;-62
2021/03/14 10:04:51;;;;;;;0.97;0.93;;;;;;;10.01;61.44;94806.36;1737974;82;21734;-62
2021/03/14 10:07:26;;;;;;;2.57;1.10;;;;;;;9.87;60.67;94806.73;1740235;82;21161;-62
2021/03/14 10:09:56;;;;;;;7.47;5.40;;;;;;;9.71;62.80;94816.00;1739967;82;21141;-62
2021/03/14 10:12:26;;;;;;;2.87;1.60;;;;;;;9.52;62.38;94802.45;1719181;82;21118;-62
2021/03/14 10:14:56;;;;;;;1.97;1.60;;;;;;;9.39;62.66;94794.02;1740073;82;21268;-65
2021/03/14 10:17:25;;;;;;;1.03;0.80;;;;;;;9.18;63.17;94798.09;1740240;82;21300;-64
2021/03/14 10:19:53;;;;;;;2.63;2.00;;;;;;;9.01;63.24;94791.94;1740107;82;21722;-65
2021/03/14 10:22:32;;;;;;;2.13;1.47;;;;;;;8.95;63.92;94793.42;1740132;82;21574;-64
2021/03/14 10:25:27;;;;;;;15.55;14.23;;;;;;;8.83;64.08;94785.38;1795781;77;27935;-62
2021/03/14 10:28:10;;;;;;;1.67;1.50;;;;;;;9.13;63.66;94786.83;1755618;82;21151;-62
2021/03/14 10:30:42;;;;;;;1.30;1.13;;;;;;;9.14;64.43;94775.84;1764478;81;21326;-62
2021/03/14 10:33:15;;;;;;;2.12;1.07;;;;;;;9.43;63.53;94785.14;1822050;79;21662;-62
2021/03/14 10:35:44;;;;;;;0.80;0.80;;;;;;;9.47;61.65;94783.28;1822714;79;21674;-62
2021/03/14 10:38:22;;;;;;;1.40;1.20;;;;;;;9.47;60.92;94764.39;1755118;82;21106;-62
2021/03/14 10:41:03;;;;;;;1.40;1.23;;;;;;;9.69;61.87;94763.80;1754374;82;21150;-62
2021/03/14 10:43:32;;;;;;;4.37;2.83;;;;;;;10.04;60.66;94763.23;1753532;81;21149;-62
2021/03/14 10:46:02;;;;;;;1.80;1.50;;;;;;;10.28;60.89;94757.69;1821976;79;21124;-62
2021/03/14 10:48:30;;;;;;;5.83;3.17;;;;;;;10.35;57.69;94764.51;1755563;82;21140;-62
2021/03/14 10:51:04;;;;;;;9.53;6.40;;;;;;;10.15;59.22;94754.11;1755540;81;21130;-62
2021/03/14 10:53:34;;;;;;;2.72;1.95;;;;;;;10.32;60.18;94768.56;1767813;81;21465;-62
2021/03/14 10:56:13;;;;;;;2.10;1.60;;;;;;;10.36;59.42;94769.75;1821244;79;21160;-62
2021/03/14 10:58:45;;;;;;;3.13;2.63;;;;;;;10.35;58.21;94770.64;1754964;82;21132;-62
2021/03/14 11:01:27;;;;;;;1.13;0.90;;;;;;;10.31;58.70;94763.75;1744712;82;21179;-62
2021/03/14 11:04:06;;;;;;;3.73;2.20;;;;;;;10.36;57.96;94763.16;1767786;81;21168;-62
2021/03/14 11:06:35;;;;;;;3.27;2.10;;;;;;;10.61;58.02;94760.61;1755688;82;21153;-62
2021/03/14 11:09:09;;;;;;;3.80;3.00;;;;;;;11.02;56.81;94746.96;1767166;81;21274;-62
2021/03/14 11:11:43;;;;;;;2.57;1.63;;;;;;;11.30;58.15;94740.27;1822330;79;21247;-62
2021/03/14 11:14:41;;;;;;;2.23;1.10;;;;;;;11.58;55.24;94741.46;1755856;82;21128;-62
2021/03/14 11:17:31;;;;;;;2.27;1.50;;;;;;;11.41;53.18;94737.23;1754840;81;21600;-62
2021/03/14 11:20:05;;;;;;;1.60;1.47;;;;;;;11.35;55.61;94734.83;1766278;81;21710;-62
2021/03/14 11:22:34;;;;;;;2.17;1.93;;;;;;;11.54;53.06;94731.95;1822608;79;21244;-62
2021/03/14 11:25:05;;;;;;;3.53;2.50;;;;;;;11.57;56.10;94725.22;1755531;81;21571;-62
2021/03/14 11:27:33;;;;;;;1.50;1.20;;;;;;;11.32;54.22;94734.94;1755438;82;21154;-62
2021/03/14 11:30:01;;;;;;;3.00;2.13;;;;;;;11.40;55.37;94725.81;1754196;82;21109;-62
2021/03/14 11:32:30;;;;;;;3.47;2.30;;;;;;;11.52;55.57;94728.48;1755798;82;21150;-62
2021/03/14 11:34:59;;;;;;;3.13;1.80;;;;;;;11.52;55.65;94714.42;1765040;81;21276;-62
2021/03/14 11:37:39;;;;;;;1.57;1.30;;;;;;;11.55;54.67;94716.48;1751447;82;21571;-62
2021/03/14 11:40:26;;;;;;;3.53;2.20;;;;;;;11.66;53.66;94712.97;1753595;82;21136;-62
2021/03/14 11:42:55;;;;;;;1.70;1.60;;;;;;;11.89;54.97;94704.67;1753663;82;21610;-62
2021/03/14 11:45:25;;;;;;;1.20;1.10;;;;;;;12.08;53.90;94703.53;1751640;82;21168;-62
2021/03/14 11:47:53;;;;;;;1.50;1.30;;;;;;;12.34;53.11;94701.17;1754801;81;21617;-62
2021/03/14 11:50:33;;;;;;;1.87;1.60;;;;;;;12.58;53.29;94696.70;1767143;81;21149;-62
2021/03/14 11:53:01;;;;;;;1.40;1.10;;;;;;;12.53;51.62;94696.02;1755264;82;21570;-62
2021/03/14 11:55:31;;;;;;;1.70;1.40;;;;;;;12.31;49.77;94698.19;1766740;81;21107;-62